createdAt,value
2019-06-01T17:37:28.347Z,98992.02
2019-06-01T17:39:57.090Z,98990.48
2019-06-01T17:42:25.831Z,98986.76
2019-06-01T17:44:54.650Z,98991.31
2019-06-01T17:47:27.079Z,98989.16
2019-06-01T17:49:54.086Z,98988.05
2019-06-01T17:52:22.806Z,98989.56
2019-06-01T17:54:52.385Z,98986.26
2019-06-01T17:57:21.102Z,98980.69
2019-06-01T17:59:49.807Z,98985.12
2019-06-01T18:02:18.974Z,98986.12
2019-06-01T18:04:47.780Z,98983.62
2019-06-01T18:07:16.577Z,98980.84
2019-06-01T18:09:45.692Z,98986.14
2019-06-01T18:12:14.417Z,98985.64
2019-06-01T18:14:43.129Z,98985.75
2019-06-01T18:17:12.396Z,98983.70
2019-06-01T18:19:41.397Z,98986.73
2019-06-01T18:22:10.946Z,98991.34
2019-06-01T18:24:39.804Z,98986.14
2019-06-01T18:27:08.652Z,98991.28
2019-06-01T18:29:39.290Z,98989.60
2019-06-01T18:32:07.980Z,98990.16
2019-06-01T18:34:37.094Z,98990.15
2019-06-01T18:37:07.342Z,98986.70
2019-06-01T18:39:36.441Z,98994.13
2019-06-01T18:42:06.286Z,98993.19
2019-06-01T18:44:35.134Z,98993.59
2019-06-01T18:47:05.646Z,98993.20
2019-06-01T18:49:34.703Z,98993.79
2019-06-01T18:52:04.167Z,98989.81
2019-06-01T18:54:35.140Z,98999.11
2019-06-01T18:57:11.977Z,98994.09
2019-06-01T18:59:34.623Z,98998.98
2019-06-01T19:02:04.276Z,98998.06
2019-06-01T19:04:33.290Z,98996.30
2019-06-01T19:07:02.211Z,98994.34
2019-06-01T19:09:31.127Z,98992.61
2019-06-01T19:12:00.124Z,98997.84
2019-06-01T19:14:28.921Z,99001.41
2019-06-01T19:16:57.653Z,99004.39
2019-06-01T19:19:26.385Z,99007.55
2019-06-01T19:21:55.162Z,98999.78
2019-06-01T19:24:24.368Z,99000.15
2019-06-01T19:26:53.290Z,99001.91
2019-06-01T19:29:22.130Z,99009.92
2019-06-01T19:31:51.664Z,99013.11
